sensor_id;sensor_type;location;lat;lon;timestamp;temperature;humidity
68746;SHT31;66104;45.456;11.064;2023-05-14T00:00:02;15.07;72.38
68746;SHT31;66104;45.456;11.064;2023-05-14T00:02:48;15.09;72.19
68746;SHT31;66104;45.456;11.064;2023-05-14T00:05:27;15.11;72.18
68746;SHT31;66104;45.456;11.064;2023-05-14T00:08:06;15.14;72.18
68746;SHT31;66104;45.456;11.064;2023-05-14T00:10:46;15.17;72.16
68746;SHT31;66104;45.456;11.064;2023-05-14T00:13:26;15.18;71.98
68746;SHT31;66104;45.456;11.064;2023-05-14T00:16:05;15.17;72.11
68746;SHT31;66104;45.456;11.064;2023-05-14T00:18:45;15.19;71.94
68746;SHT31;66104;45.456;11.064;2023-05-14T00:21:24;15.17;71.84
68746;SHT31;66104;45.456;11.064;2023-05-14T00:24:03;15.19;71.58
68746;SHT31;66104;45.456;11.064;2023-05-14T00:26:42;15.19;71.33
68746;SHT31;66104;45.456;11.064;2023-05-14T00:29:21;15.16;71.20
68746;SHT31;66104;45.456;11.064;2023-05-14T00:31:58;15.15;71.35
68746;SHT31;66104;45.456;11.064;2023-05-14T00:34:37;15.16;71.54
68746;SHT31;66104;45.456;11.064;2023-05-14T00:37:16;15.18;71.51
68746;SHT31;66104;45.456;11.064;2023-05-14T00:43:04;15.19;72.61
68746;SHT31;66104;45.456;11.064;2023-05-14T00:45:42;15.19;72.78
68746;SHT31;66104;45.456;11.064;2023-05-14T00:48:21;15.19;73.05
68746;SHT31;66104;45.456;11.064;2023-05-14T00:51:01;15.18;73.31
68746;SHT31;66104;45.456;11.064;2023-05-14T00:53:41;15.16;73.43
68746;SHT31;66104;45.456;11.064;2023-05-14T00:56:19;15.13;72.97
68746;SHT31;66104;45.456;11.064;2023-05-14T00:58:58;15.09;72.82
68746;SHT31;66104;45.456;11.064;2023-05-14T01:01:35;15.06;73.25
68746;SHT31;66104;45.456;11.064;2023-05-14T01:04:13;14.99;73.79
68746;SHT31;66104;45.456;11.064;2023-05-14T01:06:56;14.95;74.08
68746;SHT31;66104;45.456;11.064;2023-05-14T01:09:48;14.92;74.02
68746;SHT31;66104;45.456;11.064;2023-05-14T01:12:42;14.88;73.86
68746;SHT31;66104;45.456;11.064;2023-05-14T01:15:36;14.85;73.58
68746;SHT31;66104;45.456;11.064;2023-05-14T01:18:15;14.84;73.57
68746;SHT31;66104;45.456;11.064;2023-05-14T01:20:56;14.84;73.09
68746;SHT31;66104;45.456;11.064;2023-05-14T01:23:34;14.82;72.91
68746;SHT31;66104;45.456;11.064;2023-05-14T01:26:13;14.81;72.84
68746;SHT31;66104;45.456;11.064;2023-05-14T01:28:53;14.81;73.17
68746;SHT31;66104;45.456;11.064;2023-05-14T01:31:42;14.81;73.31
68746;SHT31;66104;45.456;11.064;2023-05-14T01:34:22;14.81;73.07
68746;SHT31;66104;45.456;11.064;2023-05-14T01:37:02;14.82;73.16
68746;SHT31;66104;45.456;11.064;2023-05-14T01:39:43;14.83;72.86
68746;SHT31;66104;45.456;11.064;2023-05-14T01:42:23;14.85;72.69
68746;SHT31;66104;45.456;11.064;2023-05-14T01:45:02;14.86;72.59
68746;SHT31;66104;45.456;11.064;2023-05-14T01:47:42;14.87;72.48
68746;SHT31;66104;45.456;11.064;2023-05-14T01:50:21;14.86;72.82
68746;SHT31;66104;45.456;11.064;2023-05-14T01:53:00;14.85;72.75
68746;SHT31;66104;45.456;11.064;2023-05-14T01:55:39;14.84;72.73
68746;SHT31;66104;45.456;11.064;2023-05-14T01:58:18;14.83;72.64
68746;SHT31;66104;45.456;11.064;2023-05-14T02:00:57;14.83;72.83
68746;SHT31;66104;45.456;11.064;2023-05-14T02:03:35;14.80;73.11
68746;SHT31;66104;45.456;11.064;2023-05-14T02:06:12;14.77;73.09
68746;SHT31;66104;45.456;11.064;2023-05-14T02:08:51;14.74;73.10
68746;SHT31;66104;45.456;11.064;2023-05-14T02:11:29;14.73;73.21
68746;SHT31;66104;45.456;11.064;2023-05-14T02:14:08;14.71;73.41
68746;SHT31;66104;45.456;11.064;2023-05-14T02:16:45;14.70;73.52
68746;SHT31;66104;45.456;11.064;2023-05-14T02:19:23;14.70;73.73
68746;SHT31;66104;45.456;11.064;2023-05-14T02:22:02;14.69;73.95
68746;SHT31;66104;45.456;11.064;2023-05-14T02:24:43;14.69;73.78
68746;SHT31;66104;45.456;11.064;2023-05-14T02:27:22;14.70;73.61
68746;SHT31;66104;45.456;11.064;2023-05-14T02:30:01;14.68;73.15
68746;SHT31;66104;45.456;11.064;2023-05-14T02:32:44;14.67;73.06
68746;SHT31;66104;45.456;11.064;2023-05-14T02:35:23;14.67;73.22
68746;SHT31;66104;45.456;11.064;2023-05-14T02:38:01;14.65;73.30
68746;SHT31;66104;45.456;11.064;2023-05-14T02:40:40;14.64;73.14
68746;SHT31;66104;45.456;11.064;2023-05-14T02:43:18;14.62;72.91
68746;SHT31;66104;45.456;11.064;2023-05-14T02:45:57;14.60;73.07
68746;SHT31;66104;45.456;11.064;2023-05-14T02:48:35;14.57;73.15
68746;SHT31;66104;45.456;11.064;2023-05-14T02:51:14;14.55;73.10
68746;SHT31;66104;45.456;11.064;2023-05-14T02:53:54;14.55;72.86
68746;SHT31;66104;45.456;11.064;2023-05-14T02:56:32;14.54;72.66
68746;SHT31;66104;45.456;11.064;2023-05-14T02:59:11;14.53;72.63
68746;SHT31;66104;45.456;11.064;2023-05-14T03:01:49;14.53;72.63
68746;SHT31;66104;45.456;11.064;2023-05-14T03:04:27;14.55;72.60
68746;SHT31;66104;45.456;11.064;2023-05-14T03:07:06;14.53;72.15
68746;SHT31;66104;45.456;11.064;2023-05-14T03:09:46;14.51;72.03
68746;SHT31;66104;45.456;11.064;2023-05-14T03:12:24;14.51;72.34
68746;SHT31;66104;45.456;11.064;2023-05-14T03:15:01;14.52;72.44
68746;SHT31;66104;45.456;11.064;2023-05-14T03:17:43;14.53;72.64
68746;SHT31;66104;45.456;11.064;2023-05-14T03:20:21;14.52;72.75
68746;SHT31;66104;45.456;11.064;2023-05-14T03:23:01;14.52;72.63
68746;SHT31;66104;45.456;11.064;2023-05-14T03:25:39;14.52;71.93
68746;SHT31;66104;45.456;11.064;2023-05-14T03:28:17;14.51;71.44
68746;SHT31;66104;45.456;11.064;2023-05-14T03:30:55;14.48;71.31
68746;SHT31;66104;45.456;11.064;2023-05-14T03:33:34;14.43;71.21
68746;SHT31;66104;45.456;11.064;2023-05-14T03:36:12;14.41;71.32
68746;SHT31;66104;45.456;11.064;2023-05-14T03:38:49;14.39;71.61
68746;SHT31;66104;45.456;11.064;2023-05-14T03:41:28;14.34;71.81
68746;SHT31;66104;45.456;11.064;2023-05-14T03:44:07;14.33;71.96
68746;SHT31;66104;45.456;11.064;2023-05-14T03:46:47;14.33;71.98
68746;SHT31;66104;45.456;11.064;2023-05-14T03:49:27;14.34;72.05
68746;SHT31;66104;45.456;11.064;2023-05-14T03:52:07;14.32;72.41
68746;SHT31;66104;45.456;11.064;2023-05-14T03:54:47;14.33;72.34
68746;SHT31;66104;45.456;11.064;2023-05-14T03:57:26;14.33;72.51
68746;SHT31;66104;45.456;11.064;2023-05-14T04:00:07;14.32;72.38
68746;SHT31;66104;45.456;11.064;2023-05-14T04:02:52;14.31;72.66
68746;SHT31;66104;45.456;11.064;2023-05-14T04:05:33;14.32;72.99
68746;SHT31;66104;45.456;11.064;2023-05-14T04:08:11;14.31;73.44
68746;SHT31;66104;45.456;11.064;2023-05-14T04:10:50;14.30;73.04
68746;SHT31;66104;45.456;11.064;2023-05-14T04:13:29;14.29;73.33
68746;SHT31;66104;45.456;11.064;2023-05-14T04:16:11;14.30;73.36
68746;SHT31;66104;45.456;11.064;2023-05-14T04:18:49;14.34;73.04
68746;SHT31;66104;45.456;11.064;2023-05-14T04:21:28;14.37;72.83
68746;SHT31;66104;45.456;11.064;2023-05-14T04:24:12;14.39;72.84
68746;SHT31;66104;45.456;11.064;2023-05-14T04:26:52;14.40;73.04
68746;SHT31;66104;45.456;11.064;2023-05-14T04:29:34;14.42;72.76
68746;SHT31;66104;45.456;11.064;2023-05-14T04:32:15;14.41;72.61
68746;SHT31;66104;45.456;11.064;2023-05-14T04:34:54;14.42;72.55
68746;SHT31;66104;45.456;11.064;2023-05-14T04:37:32;14.41;72.64
68746;SHT31;66104;45.456;11.064;2023-05-14T04:40:12;14.41;72.61
68746;SHT31;66104;45.456;11.064;2023-05-14T04:42:53;14.42;72.80
68746;SHT31;66104;45.456;11.064;2023-05-14T04:45:33;14.40;72.85
68746;SHT31;66104;45.456;11.064;2023-05-14T04:48:10;14.37;73.24
68746;SHT31;66104;45.456;11.064;2023-05-14T04:50:48;14.32;73.76
68746;SHT31;66104;45.456;11.064;2023-05-14T04:53:28;14.30;73.86
68746;SHT31;66104;45.456;11.064;2023-05-14T04:56:06;14.30;74.04
68746;SHT31;66104;45.456;11.064;2023-05-14T04:58:44;14.32;74.21
68746;SHT31;66104;45.456;11.064;2023-05-14T05:01:22;14.35;74.38
68746;SHT31;66104;45.456;11.064;2023-05-14T05:04:01;14.37;74.64
68746;SHT31;66104;45.456;11.064;2023-05-14T05:06:40;14.35;74.89
68746;SHT31;66104;45.456;11.064;2023-05-14T05:09:18;14.35;74.98
68746;SHT31;66104;45.456;11.064;2023-05-14T05:11:57;14.33;75.04
68746;SHT31;66104;45.456;11.064;2023-05-14T05:14:35;14.28;75.37
68746;SHT31;66104;45.456;11.064;2023-05-14T05:17:14;14.26;75.61
68746;SHT31;66104;45.456;11.064;2023-05-14T05:19:52;14.27;75.77
68746;SHT31;66104;45.456;11.064;2023-05-14T05:22:31;14.27;76.03
68746;SHT31;66104;45.456;11.064;2023-05-14T05:25:10;14.24;76.10
68746;SHT31;66104;45.456;11.064;2023-05-14T05:27:49;14.25;76.24
68746;SHT31;66104;45.456;11.064;2023-05-14T05:30:27;14.27;76.35
68746;SHT31;66104;45.456;11.064;2023-05-14T05:33:05;14.28;76.59
68746;SHT31;66104;45.456;11.064;2023-05-14T05:35:44;14.31;76.59
68746;SHT31;66104;45.456;11.064;2023-05-14T05:38:22;14.33;76.74
68746;SHT31;66104;45.456;11.064;2023-05-14T05:40:59;14.35;76.76
68746;SHT31;66104;45.456;11.064;2023-05-14T05:43:38;14.35;76.64
68746;SHT31;66104;45.456;11.064;2023-05-14T05:46:15;14.35;76.55
68746;SHT31;66104;45.456;11.064;2023-05-14T05:48:53;14.38;76.62
68746;SHT31;66104;45.456;11.064;2023-05-14T05:51:31;14.39;76.57
68746;SHT31;66104;45.456;11.064;2023-05-14T05:54:08;14.43;76.83
68746;SHT31;66104;45.456;11.064;2023-05-14T05:56:46;14.45;76.94
68746;SHT31;66104;45.456;11.064;2023-05-14T05:59:25;14.45;76.92
68746;SHT31;66104;45.456;11.064;2023-05-14T06:02:02;14.45;76.93
68746;SHT31;66104;45.456;11.064;2023-05-14T06:04:41;14.45;77.04
68746;SHT31;66104;45.456;11.064;2023-05-14T06:07:19;14.47;77.00
68746;SHT31;66104;45.456;11.064;2023-05-14T06:09:57;14.48;77.00
68746;SHT31;66104;45.456;11.064;2023-05-14T06:12:35;14.51;77.07
68746;SHT31;66104;45.456;11.064;2023-05-14T06:15:13;14.56;77.10
68746;SHT31;66104;45.456;11.064;2023-05-14T06:17:51;14.60;77.02
68746;SHT31;66104;45.456;11.064;2023-05-14T06:20:28;14.61;77.05
68746;SHT31;66104;45.456;11.064;2023-05-14T06:23:07;14.62;77.09
68746;SHT31;66104;45.456;11.064;2023-05-14T06:25:46;14.65;77.25
68746;SHT31;66104;45.456;11.064;2023-05-14T06:28:25;14.66;77.34
68746;SHT31;66104;45.456;11.064;2023-05-14T06:31:04;14.68;77.19
68746;SHT31;66104;45.456;11.064;2023-05-14T06:33:42;14.70;76.96
68746;SHT31;66104;45.456;11.064;2023-05-14T06:36:20;14.73;76.55
68746;SHT31;66104;45.456;11.064;2023-05-14T06:38:58;14.76;76.31
68746;SHT31;66104;45.456;11.064;2023-05-14T06:41:36;14.77;76.29
68746;SHT31;66104;45.456;11.064;2023-05-14T06:44:15;14.79;76.27
68746;SHT31;66104;45.456;11.064;2023-05-14T06:46:53;14.80;76.48
68746;SHT31;66104;45.456;11.064;2023-05-14T06:49:30;14.82;76.82
68746;SHT31;66104;45.456;11.064;2023-05-14T06:52:08;14.84;76.54
68746;SHT31;66104;45.456;11.064;2023-05-14T06:54:45;14.88;76.29
68746;SHT31;66104;45.456;11.064;2023-05-14T06:57:22;14.91;76.26
68746;SHT31;66104;45.456;11.064;2023-05-14T07:00:00;14.91;76.07
68746;SHT31;66104;45.456;11.064;2023-05-14T07:02:42;14.92;76.10
68746;SHT31;66104;45.456;11.064;2023-05-14T07:05:21;14.94;75.98
68746;SHT31;66104;45.456;11.064;2023-05-14T07:07:58;14.98;76.09
68746;SHT31;66104;45.456;11.064;2023-05-14T07:10:37;15.02;76.23
68746;SHT31;66104;45.456;11.064;2023-05-14T07:13:16;15.06;75.86
68746;SHT31;66104;45.456;11.064;2023-05-14T07:15:56;15.10;75.59
68746;SHT31;66104;45.456;11.064;2023-05-14T07:18:33;15.15;75.52
68746;SHT31;66104;45.456;11.064;2023-05-14T07:21:11;15.19;75.61
68746;SHT31;66104;45.456;11.064;2023-05-14T07:23:47;15.23;75.42
68746;SHT31;66104;45.456;11.064;2023-05-14T07:26:25;15.25;75.48
68746;SHT31;66104;45.456;11.064;2023-05-14T07:29:04;15.26;75.63
68746;SHT31;66104;45.456;11.064;2023-05-14T07:31:42;15.28;75.50
68746;SHT31;66104;45.456;11.064;2023-05-14T07:34:19;15.32;75.54
68746;SHT31;66104;45.456;11.064;2023-05-14T07:36:58;15.35;75.25
68746;SHT31;66104;45.456;11.064;2023-05-14T07:39:37;15.37;75.21
68746;SHT31;66104;45.456;11.064;2023-05-14T07:42:15;15.40;75.28
68746;SHT31;66104;45.456;11.064;2023-05-14T07:45:05;15.43;75.30
68746;SHT31;66104;45.456;11.064;2023-05-14T07:47:45;15.47;75.39
68746;SHT31;66104;45.456;11.064;2023-05-14T07:50:24;15.50;75.38
68746;SHT31;66104;45.456;11.064;2023-05-14T07:53:01;15.53;75.36
68746;SHT31;66104;45.456;11.064;2023-05-14T07:55:39;15.54;75.42
68746;SHT31;66104;45.456;11.064;2023-05-14T07:58:18;15.56;75.30
68746;SHT31;66104;45.456;11.064;2023-05-14T08:00:56;15.57;75.31
68746;SHT31;66104;45.456;11.064;2023-05-14T08:03:37;15.56;75.66
68746;SHT31;66104;45.456;11.064;2023-05-14T08:06:14;15.56;75.75
68746;SHT31;66104;45.456;11.064;2023-05-14T08:08:51;15.56;75.93
68746;SHT31;66104;45.456;11.064;2023-05-14T08:11:30;15.52;75.97
68746;SHT31;66104;45.456;11.064;2023-05-14T08:14:08;15.47;75.92
68746;SHT31;66104;45.456;11.064;2023-05-14T08:16:47;15.42;75.81
68746;SHT31;66104;45.456;11.064;2023-05-14T08:19:26;15.37;76.31
68746;SHT31;66104;45.456;11.064;2023-05-14T08:22:06;15.33;76.68
68746;SHT31;66104;45.456;11.064;2023-05-14T08:24:46;15.28;76.81
68746;SHT31;66104;45.456;11.064;2023-05-14T08:27:24;15.22;76.85
68746;SHT31;66104;45.456;11.064;2023-05-14T08:30:05;15.16;77.30
68746;SHT31;66104;45.456;11.064;2023-05-14T08:32:49;15.12;77.43
68746;SHT31;66104;45.456;11.064;2023-05-14T08:35:29;15.11;77.54
68746;SHT31;66104;45.456;11.064;2023-05-14T08:38:07;15.10;77.77
68746;SHT31;66104;45.456;11.064;2023-05-14T08:40:48;15.10;77.14
68746;SHT31;66104;45.456;11.064;2023-05-14T08:43:33;15.05;76.47
68746;SHT31;66104;45.456;11.064;2023-05-14T08:46:29;15.03;76.80
68746;SHT31;66104;45.456;11.064;2023-05-14T08:49:13;15.02;76.64
68746;SHT31;66104;45.456;11.064;2023-05-14T08:52:05;14.97;76.76
68746;SHT31;66104;45.456;11.064;2023-05-14T08:54:44;14.97;77.08
68746;SHT31;66104;45.456;11.064;2023-05-14T08:57:24;14.99;77.26
68746;SHT31;66104;45.456;11.064;2023-05-14T09:00:04;15.04;77.57
68746;SHT31;66104;45.456;11.064;2023-05-14T09:02:48;15.10;77.93
68746;SHT31;66104;45.456;11.064;2023-05-14T09:05:27;15.13;77.68
68746;SHT31;66104;45.456;11.064;2023-05-14T09:08:06;15.17;77.68
68746;SHT31;66104;45.456;11.064;2023-05-14T09:10:43;15.20;77.71
68746;SHT31;66104;45.456;11.064;2023-05-14T09:13:20;15.25;77.88
68746;SHT31;66104;45.456;11.064;2023-05-14T09:15:58;15.29;78.07
68746;SHT31;66104;45.456;11.064;2023-05-14T09:18:37;15.32;78.20
68746;SHT31;66104;45.456;11.064;2023-05-14T09:21:16;15.35;78.34
68746;SHT31;66104;45.456;11.064;2023-05-14T09:23:54;15.38;78.36
68746;SHT31;66104;45.456;11.064;2023-05-14T09:26:33;15.39;77.87
68746;SHT31;66104;45.456;11.064;2023-05-14T09:29:10;15.42;77.56
68746;SHT31;66104;45.456;11.064;2023-05-14T09:31:47;15.44;77.12
68746;SHT31;66104;45.456;11.064;2023-05-14T09:34:26;15.48;77.32
68746;SHT31;66104;45.456;11.064;2023-05-14T09:37:07;15.52;77.39
68746;SHT31;66104;45.456;11.064;2023-05-14T09:39:43;15.56;77.11
68746;SHT31;66104;45.456;11.064;2023-05-14T09:42:20;15.61;77.16
68746;SHT31;66104;45.456;11.064;2023-05-14T09:44:56;15.66;77.19
68746;SHT31;66104;45.456;11.064;2023-05-14T09:47:33;15.66;76.95
68746;SHT31;66104;45.456;11.064;2023-05-14T09:50:10;15.68;76.53
68746;SHT31;66104;45.456;11.064;2023-05-14T09:52:48;15.70;76.91
68746;SHT31;66104;45.456;11.064;2023-05-14T09:55:29;15.75;77.03
68746;SHT31;66104;45.456;11.064;2023-05-14T09:58:06;15.81;76.96
68746;SHT31;66104;45.456;11.064;2023-05-14T10:00:45;15.84;77.16
68746;SHT31;66104;45.456;11.064;2023-05-14T10:03:24;15.89;77.06
68746;SHT31;66104;45.456;11.064;2023-05-14T10:06:03;15.95;76.42
68746;SHT31;66104;45.456;11.064;2023-05-14T10:08:43;16.00;76.44
68746;SHT31;66104;45.456;11.064;2023-05-14T10:11:24;16.06;76.28
68746;SHT31;66104;45.456;11.064;2023-05-14T10:14:05;16.12;76.50
68746;SHT31;66104;45.456;11.064;2023-05-14T10:16:49;16.19;76.07
68746;SHT31;66104;45.456;11.064;2023-05-14T10:19:29;16.25;76.26
68746;SHT31;66104;45.456;11.064;2023-05-14T10:22:10;16.31;75.52
68746;SHT31;66104;45.456;11.064;2023-05-14T10:24:54;16.39;75.38
68746;SHT31;66104;45.456;11.064;2023-05-14T10:27:33;16.46;75.52
68746;SHT31;66104;45.456;11.064;2023-05-14T10:30:11;16.49;74.25
68746;SHT31;66104;45.456;11.064;2023-05-14T10:35:56;16.52;74.39
68746;SHT31;66104;45.456;11.064;2023-05-14T10:38:38;16.60;74.56
68746;SHT31;66104;45.456;11.064;2023-05-14T10:41:14;16.66;74.20
68746;SHT31;66104;45.456;11.064;2023-05-14T10:43:51;16.71;74.06
68746;SHT31;66104;45.456;11.064;2023-05-14T10:46:37;16.75;73.73
68746;SHT31;66104;45.456;11.064;2023-05-14T10:49:15;16.75;72.73
68746;SHT31;66104;45.456;11.064;2023-05-14T10:52:11;16.78;72.62
68746;SHT31;66104;45.456;11.064;2023-05-14T10:54:51;16.80;72.08
68746;SHT31;66104;45.456;11.064;2023-05-14T10:57:31;16.82;72.13
68746;SHT31;66104;45.456;11.064;2023-05-14T11:00:11;16.85;71.55
68746;SHT31;66104;45.456;11.064;2023-05-14T11:02:50;16.86;70.94
68746;SHT31;66104;45.456;11.064;2023-05-14T11:05:34;16.87;70.88
68746;SHT31;66104;45.456;11.064;2023-05-14T11:08:14;16.92;70.26
68746;SHT31;66104;45.456;11.064;2023-05-14T11:10:56;16.97;70.65
68746;SHT31;66104;45.456;11.064;2023-05-14T11:13:33;17.05;70.88
68746;SHT31;66104;45.456;11.064;2023-05-14T11:16:11;17.09;69.28
68746;SHT31;66104;45.456;11.064;2023-05-14T11:18:56;17.08;68.39
68746;SHT31;66104;45.456;11.064;2023-05-14T11:21:38;17.08;69.41
68746;SHT31;66104;45.456;11.064;2023-05-14T11:24:17;17.06;70.14
68746;SHT31;66104;45.456;11.064;2023-05-14T11:26:55;17.07;70.85
68746;SHT31;66104;45.456;11.064;2023-05-14T11:29:33;17.10;70.87
68746;SHT31;66104;45.456;11.064;2023-05-14T11:32:15;17.11;70.38
68746;SHT31;66104;45.456;11.064;2023-05-14T11:34:54;17.07;70.12
68746;SHT31;66104;45.456;11.064;2023-05-14T11:37:30;17.06;69.98
68746;SHT31;66104;45.456;11.064;2023-05-14T11:40:13;17.07;69.57
68746;SHT31;66104;45.456;11.064;2023-05-14T11:42:52;17.09;69.19
68746;SHT31;66104;45.456;11.064;2023-05-14T11:45:28;17.08;69.69
68746;SHT31;66104;45.456;11.064;2023-05-14T11:48:13;17.08;69.59
68746;SHT31;66104;45.456;11.064;2023-05-14T11:50:49;17.08;69.70
68746;SHT31;66104;45.456;11.064;2023-05-14T11:53:28;17.09;70.41
68746;SHT31;66104;45.456;11.064;2023-05-14T11:56:05;17.12;70.07
68746;SHT31;66104;45.456;11.064;2023-05-14T11:58:48;17.11;68.96
68746;SHT31;66104;45.456;11.064;2023-05-14T12:01:28;17.06;68.47
68746;SHT31;66104;45.456;11.064;2023-05-14T12:04:10;17.04;69.17
68746;SHT31;66104;45.456;11.064;2023-05-14T12:06:50;17.02;70.16
68746;SHT31;66104;45.456;11.064;2023-05-14T12:09:29;16.99;70.05
68746;SHT31;66104;45.456;11.064;2023-05-14T12:12:17;16.97;70.57
68746;SHT31;66104;45.456;11.064;2023-05-14T12:14:58;16.98;70.94
68746;SHT31;66104;45.456;11.064;2023-05-14T12:17:41;16.99;70.46
68746;SHT31;66104;45.456;11.064;2023-05-14T12:20:24;17.00;70.32
68746;SHT31;66104;45.456;11.064;2023-05-14T12:23:03;17.01;71.00
68746;SHT31;66104;45.456;11.064;2023-05-14T12:25:50;17.02;71.49
68746;SHT31;66104;45.456;11.064;2023-05-14T12:28:31;17.03;70.96
68746;SHT31;66104;45.456;11.064;2023-05-14T12:31:14;17.00;70.82
68746;SHT31;66104;45.456;11.064;2023-05-14T12:33:58;16.97;70.97
68746;SHT31;66104;45.456;11.064;2023-05-14T12:36:35;16.95;71.34
68746;SHT31;66104;45.456;11.064;2023-05-14T12:39:13;16.95;70.82
68746;SHT31;66104;45.456;11.064;2023-05-14T12:41:50;16.95;70.02
68746;SHT31;66104;45.456;11.064;2023-05-14T12:44:28;16.91;69.95
68746;SHT31;66104;45.456;11.064;2023-05-14T12:47:04;16.91;70.39
68746;SHT31;66104;45.456;11.064;2023-05-14T12:49:42;16.88;70.58
68746;SHT31;66104;45.456;11.064;2023-05-14T12:52:19;16.86;70.92
68746;SHT31;66104;45.456;11.064;2023-05-14T12:55:07;16.87;71.08
68746;SHT31;66104;45.456;11.064;2023-05-14T12:57:44;16.90;70.88
68746;SHT31;66104;45.456;11.064;2023-05-14T13:00:23;16.91;69.97
68746;SHT31;66104;45.456;11.064;2023-05-14T13:03:00;16.92;70.17
68746;SHT31;66104;45.456;11.064;2023-05-14T13:05:37;16.92;70.86
68746;SHT31;66104;45.456;11.064;2023-05-14T13:08:16;16.93;71.03
68746;SHT31;66104;45.456;11.064;2023-05-14T13:10:54;16.98;70.88
68746;SHT31;66104;45.456;11.064;2023-05-14T13:13:32;17.02;70.64
68746;SHT31;66104;45.456;11.064;2023-05-14T13:16:09;17.08;70.40
68746;SHT31;66104;45.456;11.064;2023-05-14T13:18:45;17.11;69.81
68746;SHT31;66104;45.456;11.064;2023-05-14T13:21:22;17.09;69.30
68746;SHT31;66104;45.456;11.064;2023-05-14T13:23:59;17.08;68.38
68746;SHT31;66104;45.456;11.064;2023-05-14T13:26:38;17.07;68.11
68746;SHT31;66104;45.456;11.064;2023-05-14T13:29:15;17.06;68.91
68746;SHT31;66104;45.456;11.064;2023-05-14T13:31:52;17.04;67.74
68746;SHT31;66104;45.456;11.064;2023-05-14T13:34:29;17.01;67.82
68746;SHT31;66104;45.456;11.064;2023-05-14T13:37:07;16.98;67.64
68746;SHT31;66104;45.456;11.064;2023-05-14T13:39:44;16.99;68.21
68746;SHT31;66104;45.456;11.064;2023-05-14T13:42:20;17.00;68.85
68746;SHT31;66104;45.456;11.064;2023-05-14T13:44:59;17.00;69.13
68746;SHT31;66104;45.456;11.064;2023-05-14T13:47:38;16.99;69.19
68746;SHT31;66104;45.456;11.064;2023-05-14T13:50:17;17.00;69.99
68746;SHT31;66104;45.456;11.064;2023-05-14T13:52:54;17.04;70.08
68746;SHT31;66104;45.456;11.064;2023-05-14T13:55:30;17.04;70.24
68746;SHT31;66104;45.456;11.064;2023-05-14T13:58:07;17.05;70.48
68746;SHT31;66104;45.456;11.064;2023-05-14T14:00:44;17.08;70.26
68746;SHT31;66104;45.456;11.064;2023-05-14T14:03:21;17.10;70.07
68746;SHT31;66104;45.456;11.064;2023-05-14T14:05:57;17.11;69.41
68746;SHT31;66104;45.456;11.064;2023-05-14T14:08:34;17.12;70.04
68746;SHT31;66104;45.456;11.064;2023-05-14T14:11:10;17.14;69.41
68746;SHT31;66104;45.456;11.064;2023-05-14T14:13:47;17.17;69.20
68746;SHT31;66104;45.456;11.064;2023-05-14T14:16:24;17.18;69.11
68746;SHT31;66104;45.456;11.064;2023-05-14T14:19:02;17.20;68.88
68746;SHT31;66104;45.456;11.064;2023-05-14T14:21:40;17.23;68.35
68746;SHT31;66104;45.456;11.064;2023-05-14T14:24:18;17.25;67.75
68746;SHT31;66104;45.456;11.064;2023-05-14T14:26:58;17.28;67.39
68746;SHT31;66104;45.456;11.064;2023-05-14T14:29:38;17.30;67.61
68746;SHT31;66104;45.456;11.064;2023-05-14T14:32:17;17.32;67.91
68746;SHT31;66104;45.456;11.064;2023-05-14T14:34:57;17.34;68.19
68746;SHT31;66104;45.456;11.064;2023-05-14T14:37:35;17.35;68.03
68746;SHT31;66104;45.456;11.064;2023-05-14T14:40:17;17.34;68.18
68746;SHT31;66104;45.456;11.064;2023-05-14T14:42:54;17.32;68.03
68746;SHT31;66104;45.456;11.064;2023-05-14T14:45:33;17.27;68.30
68746;SHT31;66104;45.456;11.064;2023-05-14T14:48:23;17.26;68.65
68746;SHT31;66104;45.456;11.064;2023-05-14T14:51:02;17.26;69.31
68746;SHT31;66104;45.456;11.064;2023-05-14T14:53:39;17.26;69.47
68746;SHT31;66104;45.456;11.064;2023-05-14T14:56:16;17.25;69.62
68746;SHT31;66104;45.456;11.064;2023-05-14T14:58:54;17.21;69.37
68746;SHT31;66104;45.456;11.064;2023-05-14T15:01:31;17.17;68.92
68746;SHT31;66104;45.456;11.064;2023-05-14T15:04:08;17.13;69.12
68746;SHT31;66104;45.456;11.064;2023-05-14T15:06:45;17.13;69.11
68746;SHT31;66104;45.456;11.064;2023-05-14T15:09:21;17.09;69.18
68746;SHT31;66104;45.456;11.064;2023-05-14T15:11:58;17.07;70.06
68746;SHT31;66104;45.456;11.064;2023-05-14T15:14:35;17.05;70.26
68746;SHT31;66104;45.456;11.064;2023-05-14T15:17:11;17.00;69.85
68746;SHT31;66104;45.456;11.064;2023-05-14T15:19:47;16.94;70.41
68746;SHT31;66104;45.456;11.064;2023-05-14T15:22:23;16.91;70.59
68746;SHT31;66104;45.456;11.064;2023-05-14T15:24:59;16.90;70.72
68746;SHT31;66104;45.456;11.064;2023-05-14T15:27:39;16.85;71.02
68746;SHT31;66104;45.456;11.064;2023-05-14T15:30:15;16.80;71.31
68746;SHT31;66104;45.456;11.064;2023-05-14T15:32:52;16.79;71.79
68746;SHT31;66104;45.456;11.064;2023-05-14T15:35:28;16.80;72.91
68746;SHT31;66104;45.456;11.064;2023-05-14T15:38:05;16.80;73.36
68746;SHT31;66104;45.456;11.064;2023-05-14T15:40:42;16.80;73.70
68746;SHT31;66104;45.456;11.064;2023-05-14T15:43:18;16.76;74.19
68746;SHT31;66104;45.456;11.064;2023-05-14T15:45:55;16.69;74.38
68746;SHT31;66104;45.456;11.064;2023-05-14T15:48:32;16.64;74.36
68746;SHT31;66104;45.456;11.064;2023-05-14T15:51:09;16.55;74.67
68746;SHT31;66104;45.456;11.064;2023-05-14T15:53:46;16.51;75.11
68746;SHT31;66104;45.456;11.064;2023-05-14T15:56:25;16.49;75.37
68746;SHT31;66104;45.456;11.064;2023-05-14T15:59:03;16.48;75.39
68746;SHT31;66104;45.456;11.064;2023-05-14T16:01:40;16.47;75.59
68746;SHT31;66104;45.456;11.064;2023-05-14T16:04:17;16.47;75.73
68746;SHT31;66104;45.456;11.064;2023-05-14T16:06:53;16.47;75.76
68746;SHT31;66104;45.456;11.064;2023-05-14T16:09:36;16.45;75.93
68746;SHT31;66104;45.456;11.064;2023-05-14T16:12:12;16.44;76.01
68746;SHT31;66104;45.456;11.064;2023-05-14T16:14:50;16.44;75.65
68746;SHT31;66104;45.456;11.064;2023-05-14T16:17:26;16.40;75.60
68746;SHT31;66104;45.456;11.064;2023-05-14T16:20:03;16.34;75.91
68746;SHT31;66104;45.456;11.064;2023-05-14T16:22:44;16.32;75.93
68746;SHT31;66104;45.456;11.064;2023-05-14T16:25:21;16.29;75.69
68746;SHT31;66104;45.456;11.064;2023-05-14T16:28:00;16.25;75.78
68746;SHT31;66104;45.456;11.064;2023-05-14T16:30:37;16.24;75.85
68746;SHT31;66104;45.456;11.064;2023-05-14T16:33:14;16.21;75.67